Time;durP1;ratioP1;P1;durP2;ratioP2;P2;SDS_P1;SDS_P2;PMS_P1;PMS_P2;Temp;Humidity;BMP_temperature;BMP_pressure;BME280_temperature;BME280_humidity;BME280_pressure;Samples;Min_cycle;Max_cycle;Signal;HPM_P1;HPM_P2
2024/04/08 00:02:05;;;;;;;31.90;29.02;;;;;;;;;;5068260;28;20211;-56
2024/04/08 00:04:31;;;;;;;34.08;31.35;;;;;;;;;;5068537;28;20202;-57
2024/04/08 00:06:57;;;;;;;31.35;28.73;;;;;;;;;;5052847;28;20204;-55
2024/04/08 00:09:23;;;;;;;31.75;29.15;;;;;;;;;;5048301;28;20206;-54
2024/04/08 00:11:49;;;;;;;37.40;34.13;;;;;;;;;;5048241;28;20290;-55
2024/04/08 00:14:15;;;;;;;29.30;27.00;;;;;;;;;;5048536;28;20290;-55
2024/04/08 00:16:42;;;;;;;27.23;25.05;;;;;;;;;;5048267;28;20199;-58
2024/04/08 00:19:09;;;;;;;26.95;24.88;;;;;;;;;;5050414;28;20222;-56
2024/04/08 00:21:34;;;;;;;21.45;19.83;;;;;;;;;;5068193;28;20637;-56
2024/04/08 00:24:01;;;;;;;19.25;17.80;;;;;;;;;;5068172;28;20210;-54
2024/04/08 00:26:26;;;;;;;12.70;11.57;;;;;;;;;;5067933;28;20237;-53
2024/04/08 00:28:53;;;;;;;9.38;8.68;;;;;;;;;;5066463;28;20548;-58
2024/04/08 00:31:18;;;;;;;7.03;6.53;;;;;;;;;;5067371;28;20209;-57
2024/04/08 00:33:46;;;;;;;5.97;5.57;;;;;;;;;;5067900;28;20211;-55
2024/04/08 00:36:13;;;;;;;5.07;4.68;;;;;;;;;;5067772;28;20203;-58
2024/04/08 00:38:39;;;;;;;4.00;3.70;;;;;;;;;;5048299;28;20285;-58
2024/04/08 00:41:05;;;;;;;3.50;3.28;;;;;;;;;;5064806;28;20875;-58
2024/04/08 00:43:31;;;;;;;3.10;2.90;;;;;;;;;;5048628;28;20298;-56
2024/04/08 00:45:57;;;;;;;2.78;2.50;;;;;;;;;;5063697;28;20202;-58
2024/04/08 00:48:23;;;;;;;3.72;3.42;;;;;;;;;;5065158;28;20598;-57
2024/04/08 00:50:51;;;;;;;5.93;5.45;;;;;;;;;;5067281;28;20199;-55
2024/04/08 00:53:17;;;;;;;5.20;4.80;;;;;;;;;;5067472;28;20198;-56
2024/04/08 00:55:44;;;;;;;6.43;5.93;;;;;;;;;;5065702;28;20206;-55
2024/04/08 00:58:12;;;;;;;6.32;5.68;;;;;;;;;;5067244;28;20215;-56
2024/04/08 01:00:38;;;;;;;8.60;7.90;;;;;;;;;;5066899;28;20350;-55
2024/04/08 01:03:05;;;;;;;17.05;15.52;;;;;;;;;;5067524;28;20211;-54
2024/04/08 01:05:31;;;;;;;14.38;13.30;;;;;;;;;;5067091;28;20207;-56
2024/04/08 01:07:59;;;;;;;19.95;18.27;;;;;;;;;;5056306;28;20654;-54
2024/04/08 01:10:26;;;;;;;21.52;19.67;;;;;;;;;;5046770;28;20203;-55
2024/04/08 01:12:52;;;;;;;14.65;13.35;;;;;;;;;;5046811;28;20204;-55
2024/04/08 01:15:18;;;;;;;16.00;14.60;;;;;;;;;;5047158;28;20208;-56
2024/04/08 01:17:46;;;;;;;19.80;18.15;;;;;;;;;;5046597;28;20199;-55
2024/04/08 01:20:12;;;;;;;16.83;15.52;;;;;;;;;;5065309;28;20242;-55
2024/04/08 01:22:38;;;;;;;13.52;12.43;;;;;;;;;;5047699;28;20209;-55
2024/04/08 01:25:05;;;;;;;15.50;14.15;;;;;;;;;;5066701;28;20203;-55
2024/04/08 01:27:32;;;;;;;9.65;8.93;;;;;;;;;;5066434;28;20230;-53
2024/04/08 01:29:57;;;;;;;10.93;10.02;;;;;;;;;;5063227;28;20593;-57
2024/04/08 01:32:24;;;;;;;10.38;9.38;;;;;;;;;;5066934;28;20199;-54
2024/04/08 01:34:49;;;;;;;7.63;7.00;;;;;;;;;;5066586;28;20199;-56
2024/04/08 01:37:16;;;;;;;7.38;6.68;;;;;;;;;;5066789;28;20206;-56
2024/04/08 01:39:42;;;;;;;5.55;5.05;;;;;;;;;;5064605;28;20584;-56
2024/04/08 01:42:09;;;;;;;3.83;3.53;;;;;;;;;;5066129;28;20242;-56
2024/04/08 01:44:35;;;;;;;3.95;3.65;;;;;;;;;;5066284;28;20627;-55
2024/04/08 01:47:02;;;;;;;4.25;3.95;;;;;;;;;;5066417;28;20199;-55
2024/04/08 01:49:27;;;;;;;4.60;4.15;;;;;;;;;;5064438;28;20202;-54
2024/04/08 01:51:54;;;;;;;3.65;3.35;;;;;;;;;;5058651;28;20214;-54
2024/04/08 01:54:20;;;;;;;4.32;3.47;;;;;;;;;;5065225;28;20206;-53
2024/04/08 01:56:47;;;;;;;3.70;3.33;;;;;;;;;;5066899;28;20258;-55
2024/04/08 01:59:14;;;;;;;4.10;3.80;;;;;;;;;;5065232;28;20192;-53
2024/04/08 02:01:40;;;;;;;4.07;3.78;;;;;;;;;;5047113;28;20226;-57
2024/04/08 02:04:06;;;;;;;3.42;3.13;;;;;;;;;;5062846;28;20196;-55
2024/04/08 02:06:32;;;;;;;3.67;3.38;;;;;;;;;;5047136;28;20599;-57
2024/04/08 02:08:58;;;;;;;2.90;2.70;;;;;;;;;;5066064;28;20229;-56
2024/04/08 02:11:24;;;;;;;2.80;2.60;;;;;;;;;;5064654;28;20686;-57
2024/04/08 02:13:50;;;;;;;2.40;2.20;;;;;;;;;;5066121;28;20213;-57
2024/04/08 02:16:18;;;;;;;2.40;2.20;;;;;;;;;;5053771;28;20203;-56
2024/04/08 02:18:43;;;;;;;3.20;3.00;;;;;;;;;;5066514;28;20365;-55
2024/04/08 02:21:11;;;;;;;4.53;4.00;;;;;;;;;;5066231;28;20730;-55
2024/04/08 02:23:39;;;;;;;5.57;5.10;;;;;;;;;;5066168;28;20253;-56
2024/04/08 02:26:05;;;;;;;19.23;17.65;;;;;;;;;;5064103;28;20306;-57
2024/04/08 02:28:31;;;;;;;15.00;13.82;;;;;;;;;;5064629;28;20225;-56
2024/04/08 02:31:01;;;;;;;28.48;25.92;;;;;;;;;;5066479;28;20664;-56
2024/04/08 02:33:28;;;;;;;33.13;30.27;;;;;;;;;;5065722;28;20198;-55
2024/04/08 02:35:55;;;;;;;34.13;31.17;;;;;;;;;;5065943;28;20203;-57
2024/04/08 02:38:21;;;;;;;37.38;34.13;;;;;;;;;;5064180;28;20195;-55
2024/04/08 02:40:48;;;;;;;39.28;35.88;;;;;;;;;;5065994;28;20203;-55
2024/04/08 02:43:13;;;;;;;54.58;49.35;;;;;;;;;;5065506;28;20325;-57
2024/04/08 02:45:40;;;;;;;44.70;40.88;;;;;;;;;;5065893;28;20311;-55
2024/04/08 02:48:06;;;;;;;53.33;48.85;;;;;;;;;;5065630;28;20210;-56
2024/04/08 02:50:34;;;;;;;42.28;38.75;;;;;;;;;;5028320;28;20230;-52
2024/04/08 02:52:59;;;;;;;37.38;34.22;;;;;;;;;;5065425;28;20893;-55
2024/04/08 02:55:26;;;;;;;25.35;23.15;;;;;;;;;;5065535;28;20210;-56
2024/04/08 02:57:52;;;;;;;19.38;17.77;;;;;;;;;;5065580;28;20198;-54
2024/04/08 03:00:18;;;;;;;11.77;10.88;;;;;;;;;;5064407;28;20264;-56
2024/04/08 03:02:45;;;;;;;8.75;8.15;;;;;;;;;;5063700;28;20207;-56
2024/04/08 03:05:11;;;;;;;6.57;5.88;;;;;;;;;;5046525;28;20285;-56
2024/04/08 03:07:38;;;;;;;3.75;3.45;;;;;;;;;;5057635;28;20208;-57
2024/04/08 03:10:05;;;;;;;3.05;2.85;;;;;;;;;;5045776;28;20235;-57
2024/04/08 03:12:31;;;;;;;3.05;2.75;;;;;;;;;;5049363;28;20583;-57
2024/04/08 03:14:58;;;;;;;2.63;2.42;;;;;;;;;;5049062;28;20219;-56
2024/04/08 03:17:23;;;;;;;3.67;3.38;;;;;;;;;;5053840;28;20241;-55
2024/04/08 03:19:53;;;;;;;3.70;3.40;;;;;;;;;;5069236;28;20203;-58
2024/04/08 03:22:19;;;;;;;3.15;2.63;;;;;;;;;;5069142;28;20778;-56
2024/04/08 03:24:47;;;;;;;3.10;2.80;;;;;;;;;;5069026;28;20203;-55
2024/04/08 03:27:13;;;;;;;3.35;3.10;;;;;;;;;;5067315;28;20572;-56
2024/04/08 03:29:39;;;;;;;5.68;5.18;;;;;;;;;;5049908;28;20229;-56
2024/04/08 03:32:05;;;;;;;5.00;4.55;;;;;;;;;;5068600;28;20628;-56
2024/04/08 03:34:34;;;;;;;5.97;5.57;;;;;;;;;;5069236;28;20221;-57
2024/04/08 03:37:01;;;;;;;12.70;11.40;;;;;;;;;;5068532;28;20296;-56
2024/04/08 03:39:27;;;;;;;16.27;14.82;;;;;;;;;;5048114;28;20298;-52
2024/04/08 03:41:55;;;;;;;21.42;19.52;;;;;;;;;;5049738;28;20616;-54
2024/04/08 03:44:22;;;;;;;21.95;20.02;;;;;;;;;;5048423;28;20196;-55
2024/04/08 03:46:49;;;;;;;20.75;19.05;;;;;;;;;;5046405;28;20626;-53
2024/04/08 03:49:15;;;;;;;20.00;18.27;;;;;;;;;;5049780;28;20210;-54
2024/04/08 03:51:41;;;;;;;18.55;16.98;;;;;;;;;;5048471;28;20240;-53
2024/04/08 03:54:07;;;;;;;21.48;19.38;;;;;;;;;;5048492;28;20191;-56
2024/04/08 03:56:34;;;;;;;18.48;16.90;;;;;;;;;;5048731;28;20204;-56
2024/04/08 03:59:01;;;;;;;17.88;16.17;;;;;;;;;;5048255;28;20755;-55
2024/04/08 04:01:27;;;;;;;16.58;15.07;;;;;;;;;;5049553;28;20239;-54
2024/04/08 04:03:53;;;;;;;15.80;14.50;;;;;;;;;;5048715;28;20204;-56
2024/04/08 04:06:19;;;;;;;14.50;13.10;;;;;;;;;;5048652;28;20223;-54
2024/04/08 04:08:45;;;;;;;13.88;12.57;;;;;;;;;;5048150;28;20233;-54
2024/04/08 04:11:11;;;;;;;16.40;14.75;;;;;;;;;;5048185;28;20227;-53
2024/04/08 04:13:37;;;;;;;20.63;18.90;;;;;;;;;;5049139;28;20200;-55
2024/04/08 04:16:06;;;;;;;26.42;23.95;;;;;;;;;;5049050;28;20690;-54
2024/04/08 04:18:31;;;;;;;36.67;33.42;;;;;;;;;;5048578;28;20904;-51
2024/04/08 04:20:58;;;;;;;38.47;35.22;;;;;;;;;;5051082;28;20282;-53
2024/04/08 04:23:23;;;;;;;41.08;37.53;;;;;;;;;;5052127;28;20207;-56
2024/04/08 04:25:52;;;;;;;51.75;47.20;;;;;;;;;;5047977;28;20207;-55
2024/04/08 04:28:17;;;;;;;55.70;51.03;;;;;;;;;;5047959;28;20219;-56
2024/04/08 04:30:52;;;;;;;39.42;36.22;;;;;;;;;;5048036;28;20238;-55
2024/04/08 04:33:19;;;;;;;26.40;24.13;;;;;;;;;;5052049;28;21074;-56
2024/04/08 04:35:51;;;;;;;21.15;19.17;;;;;;;;;;5048813;28;20288;-53
2024/04/08 04:38:17;;;;;;;15.25;13.98;;;;;;;;;;5047795;28;20207;-56
2024/04/08 04:40:44;;;;;;;13.65;12.27;;;;;;;;;;5048881;28;20204;-55
2024/04/08 04:43:09;;;;;;;9.43;8.57;;;;;;;;;;5045567;28;20215;-52
2024/04/08 04:45:36;;;;;;;7.82;7.07;;;;;;;;;;5047621;28;20698;-54
2024/04/08 04:48:02;;;;;;;7.18;6.57;;;;;;;;;;5047554;28;20215;-55
2024/04/08 04:50:31;;;;;;;6.38;5.80;;;;;;;;;;5047508;28;20227;-54
2024/04/08 04:52:57;;;;;;;7.03;6.43;;;;;;;;;;5047505;28;20204;-56
2024/04/08 04:55:24;;;;;;;6.20;5.63;;;;;;;;;;5049508;28;20206;-55
2024/04/08 04:57:49;;;;;;;5.60;5.20;;;;;;;;;;5011874;28;20239;-54
2024/04/08 05:00:16;;;;;;;6.90;6.30;;;;;;;;;;5048420;28;20592;-56
2024/04/08 05:02:42;;;;;;;7.25;6.65;;;;;;;;;;5063490;28;20206;-55
2024/04/08 05:05:08;;;;;;;6.80;6.20;;;;;;;;;;5031152;28;20233;-56
2024/04/08 05:07:36;;;;;;;6.80;6.20;;;;;;;;;;5067275;28;20195;-55
2024/04/08 05:10:03;;;;;;;10.82;9.90;;;;;;;;;;5057076;28;20192;-53
2024/04/08 05:12:28;;;;;;;8.35;7.65;;;;;;;;;;5027986;28;20191;-55
2024/04/08 05:14:55;;;;;;;9.65;8.65;;;;;;;;;;5046860;28;20257;-57
2024/04/08 05:17:20;;;;;;;7.97;7.28;;;;;;;;;;5033350;28;20203;-56
2024/04/08 05:19:47;;;;;;;6.50;5.95;;;;;;;;;;5056975;28;20206;-54
2024/04/08 05:22:16;;;;;;;4.78;4.47;;;;;;;;;;5031289;28;20207;-53
2024/04/08 05:24:44;;;;;;;4.22;3.67;;;;;;;;;;5066606;28;20699;-55
2024/04/08 05:27:10;;;;;;;4.25;3.80;;;;;;;;;;5064598;28;20203;-54
2024/04/08 05:29:36;;;;;;;4.72;3.38;;;;;;;;;;5066701;28;20226;-57
2024/04/08 05:32:02;;;;;;;3.28;3.05;;;;;;;;;;5057892;28;20708;-55
2024/04/08 05:34:29;;;;;;;3.40;3.10;;;;;;;;;;5046358;28;20208;-55
2024/04/08 05:36:54;;;;;;;3.95;2.28;;;;;;;;;;5034300;28;20199;-51
2024/04/08 05:39:21;;;;;;;4.28;3.88;;;;;;;;;;5062603;28;20199;-56
2024/04/08 05:41:48;;;;;;;3.55;3.25;;;;;;;;;;5046902;28;20230;-56
2024/04/08 05:44:14;;;;;;;6.47;5.70;;;;;;;;;;5047488;28;20264;-56
2024/04/08 05:46:41;;;;;;;3.92;3.53;;;;;;;;;;5066130;28;20195;-54
2024/04/08 05:49:08;;;;;;;4.80;4.20;;;;;;;;;;5062682;28;20938;-56
2024/04/08 05:51:33;;;;;;;3.67;2.72;;;;;;;;;;5065122;28;20233;-57
2024/04/08 05:54:00;;;;;;;4.22;2.55;;;;;;;;;;5066196;28;20667;-56
2024/04/08 05:56:25;;;;;;;3.53;3.22;;;;;;;;;;5065874;28;20214;-55
2024/04/08 05:58:53;;;;;;;4.03;3.03;;;;;;;;;;5064423;28;20203;-56
2024/04/08 06:01:19;;;;;;;3.35;2.30;;;;;;;;;;5066277;28;20203;-55
2024/04/08 06:03:46;;;;;;;2.88;2.30;;;;;;;;;;5066125;28;20738;-55
2024/04/08 06:06:15;;;;;;;3.17;2.58;;;;;;;;;;5066261;28;20195;-56
2024/04/08 06:08:42;;;;;;;4.00;1.80;;;;;;;;;;5065910;28;20683;-55
2024/04/08 06:11:08;;;;;;;1.70;1.60;;;;;;;;;;5064242;28;20265;-56
2024/04/08 06:13:34;;;;;;;5.47;2.60;;;;;;;;;;5066173;28;20210;-56
2024/04/08 06:16:02;;;;;;;3.10;2.83;;;;;;;;;;5065802;28;20303;-55
2024/04/08 06:18:28;;;;;;;2.20;2.00;;;;;;;;;;5024666;28;20760;-54
2024/04/08 06:20:54;;;;;;;2.35;1.92;;;;;;;;;;5055160;28;20202;-57
2024/04/08 06:23:21;;;;;;;1.40;1.30;;;;;;;;;;5052675;28;20537;-57
2024/04/08 06:25:47;;;;;;;2.53;1.90;;;;;;;;;;5045745;28;20203;-57
2024/04/08 06:28:14;;;;;;;3.33;1.75;;;;;;;;;;5066291;28;20226;-55
2024/04/08 06:30:39;;;;;;;1.90;1.50;;;;;;;;;;5065920;28;20317;-56
2024/04/08 06:33:09;;;;;;;4.10;1.98;;;;;;;;;;5066237;28;20294;-55
2024/04/08 06:35:34;;;;;;;1.60;1.50;;;;;;;;;;5062536;28;20207;-60
2024/04/08 06:38:01;;;;;;;1.83;1.73;;;;;;;;;;5045605;28;20770;-54
2024/04/08 06:40:27;;;;;;;2.47;1.88;;;;;;;;;;5020259;28;20262;-51
2024/04/08 06:42:54;;;;;;;2.53;1.80;;;;;;;;;;5065315;28;20226;-55
2024/04/08 06:45:20;;;;;;;3.00;2.08;;;;;;;;;;5026201;28;20206;-54
2024/04/08 06:47:46;;;;;;;2.72;2.00;;;;;;;;;;5069007;28;20213;-55
2024/04/08 06:50:13;;;;;;;3.33;2.00;;;;;;;;;;5068003;28;20209;-62
2024/04/08 06:52:40;;;;;;;3.33;2.13;;;;;;;;;;5062636;28;20223;-61
2024/04/08 06:55:06;;;;;;;2.67;2.33;;;;;;;;;;5061962;28;20699;-62
2024/04/08 06:57:33;;;;;;;2.22;1.88;;;;;;;;;;5065664;28;20268;-62
2024/04/08 06:59:58;;;;;;;2.85;2.03;;;;;;;;;;5056679;28;20611;-62
2024/04/08 07:02:25;;;;;;;1.70;1.60;;;;;;;;;;5057671;28;20199;-62
2024/04/08 07:04:50;;;;;;;1.88;1.63;;;;;;;;;;5063543;28;20191;-62
2024/04/08 07:07:18;;;;;;;1.80;1.70;;;;;;;;;;5068224;28;20757;-61
2024/04/08 07:09:44;;;;;;;1.50;1.38;;;;;;;;;;5059079;28;20204;-61
2024/04/08 07:12:10;;;;;;;6.35;1.88;;;;;;;;;;5053906;28;20291;-60
2024/04/08 07:14:36;;;;;;;2.60;1.90;;;;;;;;;;5068431;28;20199;-60
2024/04/08 07:17:03;;;;;;;2.03;1.73;;;;;;;;;;5068356;28;20201;-60
2024/04/08 07:19:29;;;;;;;2.10;1.45;;;;;;;;;;5068101;28;20743;-60
2024/04/08 07:21:55;;;;;;;1.77;1.50;;;;;;;;;;5065407;28;20654;-59
2024/04/08 07:24:22;;;;;;;1.67;1.55;;;;;;;;;;5061084;28;20206;-59
2024/04/08 07:26:49;;;;;;;3.13;1.67;;;;;;;;;;5060509;28;20196;-60
2024/04/08 07:29:15;;;;;;;2.90;1.60;;;;;;;;;;5062544;28;20803;-60
2024/04/08 07:31:41;;;;;;;3.53;1.90;;;;;;;;;;5068172;28;20317;-59
2024/04/08 07:34:07;;;;;;;2.45;2.25;;;;;;;;;;5068034;28;20191;-59
2024/04/08 07:36:34;;;;;;;2.58;2.25;;;;;;;;;;5060272;28;20280;-59
2024/04/08 07:38:59;;;;;;;2.97;2.25;;;;;;;;;;5063194;28;20209;-59
2024/04/08 07:41:27;;;;;;;1.90;1.77;;;;;;;;;;5067646;28;20688;-58
2024/04/08 07:43:53;;;;;;;2.15;1.88;;;;;;;;;;5068275;28;20206;-57
2024/04/08 07:46:20;;;;;;;2.25;2.00;;;;;;;;;;5065140;28;20202;-57
2024/04/08 07:48:46;;;;;;;2.85;1.80;;;;;;;;;;5062719;28;20298;-57
2024/04/08 07:51:12;;;;;;;1.70;1.60;;;;;;;;;;5053807;28;20311;-57
2024/04/08 07:53:38;;;;;;;1.90;1.33;;;;;;;;;;5065835;28;20210;-59
2024/04/08 07:56:05;;;;;;;1.23;0.90;;;;;;;;;;5056619;28;20199;-58
2024/04/08 07:58:34;;;;;;;1.58;0.95;;;;;;;;;;5031568;28;20290;-59
2024/04/08 08:01:01;;;;;;;2.33;1.02;;;;;;;;;;5065113;28;20246;-58
2024/04/08 08:03:27;;;;;;;2.55;1.02;;;;;;;;;;5066072;28;20203;-55
2024/04/08 08:05:54;;;;;;;1.00;0.90;;;;;;;;;;5065821;28;20195;-56
2024/04/08 08:08:20;;;;;;;2.63;1.02;;;;;;;;;;5056071;28;20621;-61
2024/04/08 08:10:47;;;;;;;1.20;0.88;;;;;;;;;;5065189;28;20206;-53
2024/04/08 08:13:13;;;;;;;1.85;0.80;;;;;;;;;;5065378;28;20195;-57
2024/04/08 08:15:41;;;;;;;0.88;0.70;;;;;;;;;;5067611;28;20202;-55
2024/04/08 08:18:08;;;;;;;1.02;0.73;;;;;;;;;;5058736;28;20202;-56
2024/04/08 08:20:34;;;;;;;0.60;0.60;;;;;;;;;;5064548;28;20707;-53
2024/04/08 08:23:01;;;;;;;0.93;0.60;;;;;;;;;;5065168;28;20210;-55
2024/04/08 08:25:28;;;;;;;0.88;0.52;;;;;;;;;;5059739;28;20204;-54
2024/04/08 08:27:55;;;;;;;0.82;0.80;;;;;;;;;;5067375;28;20305;-58
2024/04/08 08:30:22;;;;;;;1.30;0.70;;;;;;;;;;5063354;28;20256;-54
2024/04/08 08:32:52;;;;;;;0.95;0.80;;;;;;;;;;5067631;28;20233;-56
2024/04/08 08:35:19;;;;;;;1.35;0.82;;;;;;;;;;5067453;28;20202;-53
2024/04/08 08:37:44;;;;;;;1.70;0.70;;;;;;;;;;5067337;28;20203;-57
2024/04/08 08:40:11;;;;;;;1.00;0.68;;;;;;;;;;5067151;28;20258;-55
2024/04/08 08:42:37;;;;;;;0.90;0.52;;;;;;;;;;5066870;28;20245;-53
2024/04/08 08:45:04;;;;;;;0.57;0.52;;;;;;;;;;5066810;28;20203;-55
2024/04/08 08:47:30;;;;;;;3.10;0.68;;;;;;;;;;5067282;28;20253;-57
2024/04/08 08:49:58;;;;;;;3.10;0.70;;;;;;;;;;5066832;28;20665;-55
2024/04/08 08:52:24;;;;;;;3.90;0.80;;;;;;;;;;5067010;28;20610;-59
2024/04/08 08:54:52;;;;;;;2.20;0.70;;;;;;;;;;5025055;28;20198;-56
2024/04/08 08:57:18;;;;;;;1.15;0.60;;;;;;;;;;5061391;28;20204;-56
2024/04/08 08:59:45;;;;;;;2.33;0.43;;;;;;;;;;5029483;28;20216;-53
2024/04/08 09:02:11;;;;;;;1.35;0.80;;;;;;;;;;5052720;28;20211;-53
2024/04/08 09:04:38;;;;;;;0.90;0.65;;;;;;;;;;5066773;28;20203;-52
2024/04/08 09:07:05;;;;;;;0.60;0.60;;;;;;;;;;5030865;28;20203;-58
2024/04/08 09:09:32;;;;;;;0.50;0.50;;;;;;;;;;5066124;28;21238;-54
2024/04/08 09:11:57;;;;;;;0.77;0.55;;;;;;;;;;5066670;28;20226;-58
2024/04/08 09:14:24;;;;;;;0.40;0.40;;;;;;;;;;5067046;28;20725;-55
2024/04/08 09:16:52;;;;;;;1.70;0.60;;;;;;;;;;5067053;28;20199;-56
2024/04/08 09:19:18;;;;;;;0.60;0.60;;;;;;;;;;5053983;28;20549;-58
2024/04/08 09:21:44;;;;;;;0.95;0.60;;;;;;;;;;5065059;28;20293;-53
2024/04/08 09:24:12;;;;;;;0.60;0.60;;;;;;;;;;5047367;28;20650;-56
2024/04/08 09:26:40;;;;;;;0.70;0.60;;;;;;;;;;5066310;28;20596;-51
2024/04/08 09:29:06;;;;;;;0.60;0.60;;;;;;;;;;5066037;28;20218;-54
2024/04/08 09:31:32;;;;;;;0.50;0.40;;;;;;;;;;5067621;28;20223;-53
2024/04/08 09:33:59;;;;;;;1.08;0.60;;;;;;;;;;5066112;28;20206;-54
2024/04/08 09:36:25;;;;;;;1.80;0.75;;;;;;;;;;5066237;28;20202;-49
2024/04/08 09:38:53;;;;;;;0.80;0.65;;;;;;;;;;5066503;28;20198;-53
2024/04/08 09:41:21;;;;;;;0.73;0.50;;;;;;;;;;5065680;28;20756;-52
2024/04/08 09:43:48;;;;;;;0.52;0.52;;;;;;;;;;5065303;28;20281;-55
2024/04/08 09:46:14;;;;;;;0.93;0.85;;;;;;;;;;5066026;28;20195;-54
2024/04/08 09:50:13;;;;;;;1.27;0.75;;;;;;;;;;5464183;25;20617;-54
2024/04/08 09:52:39;;;;;;;1.02;0.70;;;;;;;;;;5464675;26;20239;-53
2024/04/08 09:55:08;;;;;;;0.52;0.52;;;;;;;;;;5465235;26;20294;-55
2024/04/08 09:57:38;;;;;;;1.17;0.50;;;;;;;;;;5462268;26;20308;-55
2024/04/08 10:00:07;;;;;;;0.73;0.70;;;;;;;;;;5465321;26;20295;-59
2024/04/08 10:02:37;;;;;;;0.60;0.60;;;;;;;;;;5401085;26;20238;-57
2024/04/08 10:05:06;;;;;;;0.75;0.68;;;;;;;;;;5456639;26;20232;-59
2024/04/08 10:07:35;;;;;;;0.80;0.80;;;;;;;;;;5424998;26;20228;-59
2024/04/08 10:10:03;;;;;;;1.23;0.60;;;;;;;;;;5396242;26;20263;-60
2024/04/08 10:12:30;;;;;;;1.23;0.60;;;;;;;;;;5461036;26;20650;-59
2024/04/08 10:14:58;;;;;;;0.80;0.50;;;;;;;;;;5464910;26;20583;-56
2024/04/08 10:17:26;;;;;;;2.15;0.60;;;;;;;;;;5461992;26;20231;-57
2024/04/08 10:19:55;;;;;;;0.70;0.70;;;;;;;;;;5464692;26;20232;-57
2024/04/08 10:22:25;;;;;;;0.98;0.70;;;;;;;;;;5400724;26;20220;-59
2024/04/08 10:24:56;;;;;;;0.52;0.40;;;;;;;;;;5456448;26;20266;-61
2024/04/08 10:27:25;;;;;;;1.45;0.75;;;;;;;;;;5443819;26;20232;-62
2024/04/08 10:29:58;;;;;;;0.82;0.77;;;;;;;;;;5454610;26;20240;-62
2024/04/08 10:32:24;;;;;;;0.90;0.57;;;;;;;;;;5434742;26;20232;-61
2024/04/08 10:34:52;;;;;;;1.25;0.55;;;;;;;;;;5449332;26;20247;-60
2024/04/08 10:37:18;;;;;;;0.40;0.40;;;;;;;;;;5436096;26;20248;-61
2024/04/08 10:39:46;;;;;;;0.93;0.40;;;;;;;;;;5448892;26;20810;-60
2024/04/08 10:42:15;;;;;;;1.58;0.50;;;;;;;;;;5433936;26;20287;-61
2024/04/08 10:44:43;;;;;;;0.77;0.73;;;;;;;;;;5451529;26;20235;-60
2024/04/08 10:47:09;;;;;;;0.57;0.57;;;;;;;;;;5445662;26;20243;-61
2024/04/08 10:49:38;;;;;;;0.82;0.50;;;;;;;;;;5444864;26;20251;-62
2024/04/08 10:52:04;;;;;;;0.43;0.43;;;;;;;;;;5444824;26;20290;-61
2024/04/08 10:54:32;;;;;;;1.83;0.45;;;;;;;;;;5432905;26;20253;-59
2024/04/08 10:56:58;;;;;;;0.60;0.57;;;;;;;;;;5441393;26;20233;-60
2024/04/08 10:59:29;;;;;;;1.85;0.30;;;;;;;;;;5426668;26;20320;-62
2024/04/08 11:01:56;;;;;;;1.45;0.68;;;;;;;;;;5416646;26;20307;-60
2024/04/08 11:04:25;;;;;;;0.70;0.57;;;;;;;;;;5430671;26;20670;-62
2024/04/08 11:06:50;;;;;;;1.60;0.65;;;;;;;;;;5429853;26;20342;-66
2024/04/08 11:09:19;;;;;;;0.60;0.60;;;;;;;;;;5434351;26;20243;-63
2024/04/08 11:11:46;;;;;;;0.85;0.50;;;;;;;;;;5430406;26;21231;-59
2024/04/08 11:14:15;;;;;;;0.98;0.60;;;;;;;;;;5426318;26;20236;-61
2024/04/08 11:16:43;;;;;;;0.73;0.50;;;;;;;;;;5445991;26;20220;-62
2024/04/08 11:19:13;;;;;;;0.70;0.40;;;;;;;;;;5380307;26;20228;-63
2024/04/08 11:21:39;;;;;;;1.00;0.50;;;;;;;;;;5349406;26;20225;-60
2024/04/08 11:24:12;;;;;;;0.95;0.65;;;;;;;;;;5422097;26;20240;-60
2024/04/08 11:26:38;;;;;;;0.50;0.50;;;;;;;;;;5431629;26;20270;-63
2024/04/08 11:29:07;;;;;;;0.80;0.55;;;;;;;;;;5400771;26;20248;-60
2024/04/08 11:31:32;;;;;;;0.77;0.40;;;;;;;;;;5411833;26;20662;-58
2024/04/08 11:34:03;;;;;;;0.70;0.60;;;;;;;;;;5447874;26;20331;-59
2024/04/08 11:36:29;;;;;;;2.08;0.50;;;;;;;;;;5445741;26;20679;-59
2024/04/08 11:38:57;;;;;;;2.40;0.63;;;;;;;;;;5426674;26;20329;-60
2024/04/08 11:41:23;;;;;;;0.93;0.60;;;;;;;;;;5410521;26;20245;-59
2024/04/08 11:43:51;;;;;;;1.10;0.55;;;;;;;;;;5412879;26;20272;-58
2024/04/08 11:46:17;;;;;;;1.65;0.68;;;;;;;;;;5416324;26;20288;-60
2024/04/08 11:48:45;;;;;;;1.65;0.57;;;;;;;;;;5412294;26;20813;-59
2024/04/08 11:51:14;;;;;;;0.50;0.50;;;;;;;;;;5420330;26;20283;-60
2024/04/08 11:53:43;;;;;;;0.50;0.50;;;;;;;;;;5442373;26;20237;-60
2024/04/08 11:56:08;;;;;;;0.63;0.55;;;;;;;;;;5433295;26;20274;-61
2024/04/08 11:58:36;;;;;;;0.45;0.40;;;;;;;;;;5458925;26;20243;-61
2024/04/08 12:01:04;;;;;;;0.40;0.40;;;;;;;;;;5436516;26;20781;-60
2024/04/08 12:03:32;;;;;;;0.93;0.57;;;;;;;;;;5419471;26;20269;-61
2024/04/08 12:06:00;;;;;;;0.90;0.40;;;;;;;;;;5435855;26;20241;-61
2024/04/08 12:08:31;;;;;;;0.60;0.60;;;;;;;;;;5421391;26;20846;-62
2024/04/08 12:10:57;;;;;;;0.70;0.40;;;;;;;;;;5426094;26;20901;-61
2024/04/08 12:13:26;;;;;;;0.95;0.43;;;;;;;;;;5423187;26;20236;-61
2024/04/08 12:15:52;;;;;;;0.60;0.52;;;;;;;;;;5443035;26;20572;-61
2024/04/08 12:18:20;;;;;;;2.28;0.57;;;;;;;;;;5430631;26;20268;-63
2024/04/08 12:20:46;;;;;;;0.65;0.50;;;;;;;;;;5428189;26;20241;-60
2024/04/08 12:23:15;;;;;;;0.85;0.65;;;;;;;;;;5431831;26;20295;-61
2024/04/08 12:25:43;;;;;;;0.60;0.50;;;;;;;;;;5370741;26;20249;-61
2024/04/08 12:28:12;;;;;;;0.73;0.60;;;;;;;;;;5425762;26;20240;-60
2024/04/08 12:30:41;;;;;;;0.50;0.50;;;;;;;;;;5400021;26;20399;-61
2024/04/08 12:33:09;;;;;;;0.50;0.50;;;;;;;;;;5412946;26;20240;-60
2024/04/08 12:35:35;;;;;;;0.65;0.55;;;;;;;;;;5410914;26;20229;-61
2024/04/08 12:38:08;;;;;;;1.05;0.35;;;;;;;;;;5353516;26;20241;-59
2024/04/08 12:40:34;;;;;;;0.88;0.50;;;;;;;;;;5432754;26;20240;-61
2024/04/08 12:43:06;;;;;;;0.68;0.40;;;;;;;;;;5446475;26;20732;-63
2024/04/08 12:45:32;;;;;;;1.08;0.30;;;;;;;;;;5424375;26;20245;-63
2024/04/08 12:48:01;;;;;;;1.02;0.60;;;;;;;;;;5438322;26;20298;-62
2024/04/08 12:50:27;;;;;;;0.43;0.38;;;;;;;;;;5422152;26;20291;-60
2024/04/08 12:52:55;;;;;;;1.08;0.50;;;;;;;;;;5423716;26;20292;-60
2024/04/08 12:55:24;;;;;;;0.57;0.40;;;;;;;;;;5437208;26;21083;-60
2024/04/08 12:57:50;;;;;;;0.50;0.50;;;;;;;;;;5436397;26;20236;-59
2024/04/08 13:00:22;;;;;;;0.75;0.40;;;;;;;;;;5424851;26;20237;-60
2024/04/08 13:02:48;;;;;;;0.40;0.40;;;;;;;;;;5410076;26;20240;-59
2024/04/08 13:05:17;;;;;;;1.17;0.50;;;;;;;;;;5418519;26;20241;-60
2024/04/08 13:07:43;;;;;;;0.50;0.45;;;;;;;;;;5360873;26;20360;-59
2024/04/08 13:10:11;;;;;;;1.25;0.60;;;;;;;;;;5432695;26;20240;-60
2024/04/08 13:12:37;;;;;;;1.00;0.50;;;;;;;;;;5446314;26;20228;-60
2024/04/08 13:15:06;;;;;;;1.02;0.50;;;;;;;;;;5380455;26;20280;-60
2024/04/08 13:17:35;;;;;;;0.82;0.60;;;;;;;;;;5410301;26;20329;-60
2024/04/08 13:20:03;;;;;;;0.93;0.50;;;;;;;;;;5412812;26;20428;-60
2024/04/08 13:22:29;;;;;;;1.25;0.47;;;;;;;;;;5410417;26;20797;-60
2024/04/08 13:24:57;;;;;;;0.70;0.50;;;;;;;;;;5434182;26;20240;-60
2024/04/08 13:27:23;;;;;;;1.73;0.30;;;;;;;;;;5446389;26;20799;-59
2024/04/08 13:29:52;;;;;;;2.30;0.60;;;;;;;;;;5445994;26;20282;-59
2024/04/08 13:32:18;;;;;;;0.80;0.50;;;;;;;;;;5435824;26;20422;-59
2024/04/08 13:34:50;;;;;;;0.60;0.50;;;;;;;;;;5412690;26;21175;-60
2024/04/08 13:37:15;;;;;;;0.50;0.40;;;;;;;;;;5409944;26;20229;-60
2024/04/08 13:39:44;;;;;;;0.50;0.50;;;;;;;;;;5412301;26;20254;-59
2024/04/08 13:42:09;;;;;;;0.98;0.40;;;;;;;;;;5409902;26;20264;-60
2024/04/08 13:44:39;;;;;;;0.30;0.30;;;;;;;;;;5412493;26;20225;-58
2024/04/08 13:47:05;;;;;;;0.85;0.43;;;;;;;;;;5435236;26;20352;-58
2024/04/08 13:49:34;;;;;;;0.70;0.50;;;;;;;;;;5447725;26;20637;-57
2024/04/08 13:52:06;;;;;;;0.52;0.50;;;;;;;;;;5409692;26;20268;-59
2024/04/08 13:54:35;;;;;;;0.75;0.60;;;;;;;;;;5412469;26;20240;-59
2024/04/08 13:57:00;;;;;;;0.35;0.30;;;;;;;;;;5405766;26;20271;-59
2024/04/08 13:59:29;;;;;;;0.90;0.50;;;;;;;;;;5431364;26;20349;-58
2024/04/08 14:01:55;;;;;;;1.60;0.60;;;;;;;;;;5379979;26;20259;-60
2024/04/08 14:04:23;;;;;;;0.80;0.50;;;;;;;;;;5447935;26;20240;-60
2024/04/08 14:06:49;;;;;;;1.50;0.40;;;;;;;;;;5445626;26;20699;-61
2024/04/08 14:09:20;;;;;;;0.85;0.40;;;;;;;;;;5406084;26;20232;-60
2024/04/08 14:11:46;;;;;;;1.15;0.50;;;;;;;;;;5417123;26;20287;-60
2024/04/08 14:14:14;;;;;;;0.73;0.45;;;;;;;;;;5408793;26;20307;-60
2024/04/08 14:16:40;;;;;;;0.65;0.47;;;;;;;;;;5415286;26;20336;-60
2024/04/08 14:19:08;;;;;;;0.80;0.60;;;;;;;;;;5440939;26;20240;-59
2024/04/08 14:21:34;;;;;;;0.28;0.28;;;;;;;;;;5439746;26;20352;-60
2024/04/08 14:24:03;;;;;;;1.55;0.50;;;;;;;;;;5439938;26;20710;-60
2024/04/08 14:26:32;;;;;;;1.02;0.50;;;;;;;;;;5409288;26;20229;-59
2024/04/08 14:29:00;;;;;;;0.40;0.40;;;;;;;;;;5410137;26;20370;-60
2024/04/08 14:31:26;;;;;;;0.55;0.50;;;;;;;;;;5408896;26;20264;-57
2024/04/08 14:33:56;;;;;;;0.98;0.50;;;;;;;;;;5431299;26;20236;-59
2024/04/08 14:36:24;;;;;;;2.67;0.50;;;;;;;;;;5464790;26;20243;-59
2024/04/08 14:38:52;;;;;;;0.52;0.50;;;;;;;;;;5462675;26;20247;-60